createdAt,value
2022-11-20T00:01:29.617Z,7.02
2022-11-20T00:03:58.727Z,7.05
2022-11-20T00:06:26.380Z,7.04
2022-11-20T00:08:56.582Z,7.04
2022-11-20T00:11:24.807Z,7.03
2022-11-20T00:13:53.900Z,7.02
2022-11-20T00:16:23.555Z,6.96
2022-11-20T00:18:50.793Z,6.87
2022-11-20T00:21:23.385Z,6.79
2022-11-20T00:23:51.318Z,6.71
2022-11-20T00:26:20.198Z,6.64
2022-11-20T00:28:58.462Z,6.64
2022-11-20T00:31:25.737Z,6.66
2022-11-20T00:33:53.105Z,6.73
2022-11-20T00:36:25.485Z,6.78
2022-11-20T00:38:57.063Z,6.85
2022-11-20T00:41:24.889Z,6.90
2022-11-20T00:43:53.387Z,6.93
2022-11-20T00:46:22.602Z,6.98
2022-11-20T00:48:50.040Z,7.03
2022-11-20T00:51:19.432Z,7.05
2022-11-20T00:53:46.474Z,7.05
2022-11-20T00:56:15.698Z,7.04
2022-11-20T00:58:44.941Z,7.06
2022-11-20T01:01:25.165Z,7.09
2022-11-20T01:03:53.397Z,7.11
2022-11-20T01:06:28.908Z,7.14
2022-11-20T01:08:58.239Z,7.15
2022-11-20T01:11:33.715Z,7.15
2022-11-20T01:14:02.805Z,7.14
2022-11-20T01:16:35.571Z,7.11
2022-11-20T01:19:04.483Z,7.10
2022-11-20T01:21:52.216Z,7.11
2022-11-20T01:24:20.896Z,7.07
2022-11-20T01:26:50.691Z,7.09
2022-11-20T01:29:19.502Z,7.09
2022-11-20T01:31:46.530Z,7.05
2022-11-20T01:34:15.294Z,7.07
2022-11-20T01:36:43.243Z,7.11
2022-11-20T01:39:21.216Z,7.11
2022-11-20T01:42:10.071Z,7.15
2022-11-20T01:44:54.227Z,7.01
2022-11-20T01:47:30.148Z,6.89
2022-11-20T01:50:03.475Z,6.80
2022-11-20T01:52:50.524Z,6.81
2022-11-20T01:55:28.694Z,6.79
2022-11-20T01:57:55.841Z,6.70
2022-11-20T02:00:22.868Z,6.63
2022-11-20T02:02:56.708Z,6.60
2022-11-20T02:05:26.437Z,6.63
2022-11-20T02:07:53.784Z,6.50
2022-11-20T02:10:21.045Z,6.22
2022-11-20T02:13:06.203Z,6.29
2022-11-20T02:15:34.606Z,6.12
2022-11-20T02:18:01.516Z,6.13
2022-11-20T02:20:28.633Z,6.40
2022-11-20T02:23:00.632Z,6.52
2022-11-20T02:25:28.825Z,6.46
2022-11-20T02:27:55.690Z,6.40
2022-11-20T02:30:22.341Z,6.28
2022-11-20T02:32:49.011Z,6.22
2022-11-20T02:35:18.738Z,6.21
2022-11-20T02:37:45.998Z,6.10
2022-11-20T02:40:12.624Z,6.01
2022-11-20T02:42:39.281Z,6.08
2022-11-20T02:45:06.793Z,6.15
2022-11-20T02:47:34.152Z,6.19
2022-11-20T02:50:00.881Z,6.26
2022-11-20T02:52:27.559Z,6.29
2022-11-20T02:54:54.324Z,6.35
2022-11-20T02:57:21.044Z,6.42
2022-11-20T02:59:47.776Z,6.46
2022-11-20T03:02:14.381Z,6.53
2022-11-20T03:04:41.170Z,6.63
2022-11-20T03:07:09.397Z,6.74
2022-11-20T03:09:36.084Z,6.80
2022-11-20T03:12:02.708Z,6.81
2022-11-20T03:14:29.290Z,6.84
2022-11-20T03:16:56.852Z,6.92
2022-11-20T03:19:24.484Z,6.97
2022-11-20T03:21:51.011Z,6.96
2022-11-20T03:24:17.673Z,6.98
2022-11-20T03:26:44.418Z,7.03
2022-11-20T03:29:11.076Z,7.11
2022-11-20T03:31:43.067Z,7.16
2022-11-20T03:34:12.269Z,7.16
2022-11-20T03:36:43.403Z,7.16
2022-11-20T03:39:10.424Z,7.13
2022-11-20T03:41:39.321Z,7.15
2022-11-20T03:44:10.132Z,7.14
2022-11-20T03:46:36.954Z,7.16
2022-11-20T03:49:04.272Z,7.16
2022-11-20T03:51:33.429Z,7.19
2022-11-20T03:54:03.135Z,7.14
2022-11-20T03:56:30.547Z,7.07
2022-11-20T03:58:57.703Z,6.98
2022-11-20T04:01:27.463Z,7.00
2022-11-20T04:03:55.794Z,7.00
2022-11-20T04:06:30.752Z,6.98
2022-11-20T04:08:59.411Z,6.95
2022-11-20T04:11:31.407Z,6.93
2022-11-20T04:14:00.356Z,6.95
2022-11-20T04:16:29.772Z,7.01
2022-11-20T04:18:58.785Z,7.04
2022-11-20T04:21:26.436Z,7.05
2022-11-20T04:23:54.046Z,7.10
2022-11-20T04:26:22.075Z,7.14
2022-11-20T04:28:48.742Z,7.16
2022-11-20T04:31:21.389Z,7.19
2022-11-20T04:33:48.362Z,7.23
2022-11-20T04:36:23.925Z,7.26
2022-11-20T04:38:57.350Z,7.26
2022-11-20T04:41:30.526Z,7.26
2022-11-20T04:44:02.820Z,7.25
2022-11-20T04:46:30.970Z,7.25
2022-11-20T04:48:57.576Z,7.25
2022-11-20T04:51:24.761Z,7.29
2022-11-20T04:53:51.612Z,7.31
2022-11-20T04:56:18.754Z,7.33
2022-11-20T04:58:45.537Z,7.33
2022-11-20T05:01:17.852Z,7.36
2022-11-20T05:03:45.841Z,7.36
2022-11-20T05:06:14.942Z,7.28
2022-11-20T05:08:42.203Z,7.21
2022-11-20T05:11:14.053Z,7.05
2022-11-20T05:13:41.381Z,6.84
2022-11-20T05:16:11.032Z,6.76
2022-11-20T05:18:39.020Z,6.78
2022-11-20T05:21:06.486Z,6.82
2022-11-20T05:23:34.121Z,6.86
2022-11-20T05:26:01.866Z,6.85
2022-11-20T05:28:30.145Z,6.84
2022-11-20T05:30:57.002Z,6.78
2022-11-20T05:33:23.829Z,6.70
2022-11-20T05:35:50.440Z,6.80
2022-11-20T05:38:16.972Z,6.93
2022-11-20T05:40:43.745Z,7.00
2022-11-20T05:43:10.302Z,7.07
2022-11-20T05:45:36.950Z,7.14
2022-11-20T05:48:04.098Z,7.20
2022-11-20T05:50:30.810Z,7.24
2022-11-20T05:53:00.557Z,7.32
2022-11-20T05:55:27.683Z,7.34
2022-11-20T05:57:55.870Z,7.30
2022-11-20T06:00:23.636Z,7.33
2022-11-20T06:02:50.378Z,7.35
2022-11-20T06:05:17.214Z,7.35
2022-11-20T06:07:43.877Z,7.34
2022-11-20T06:10:10.529Z,7.27
2022-11-20T06:12:37.071Z,7.19
2022-11-20T06:15:05.946Z,7.16
2022-11-20T06:17:32.755Z,7.17
2022-11-20T06:19:59.381Z,7.20
2022-11-20T06:22:26.064Z,7.26
2022-11-20T06:24:52.644Z,7.36
2022-11-20T06:27:19.338Z,7.42
2022-11-20T06:29:45.926Z,7.47
2022-11-20T06:32:12.559Z,7.45
2022-11-20T06:34:39.141Z,7.46
2022-11-20T06:37:05.760Z,7.48
2022-11-20T06:39:32.303Z,7.49
2022-11-20T06:41:59.473Z,7.49
2022-11-20T06:44:26.782Z,7.47
2022-11-20T06:46:53.430Z,7.50
2022-11-20T06:49:20.360Z,7.57
2022-11-20T06:51:47.112Z,7.55
2022-11-20T06:54:13.742Z,7.50
2022-11-20T06:56:40.415Z,7.51
2022-11-20T06:59:08.250Z,7.58
2022-11-20T07:01:35.908Z,7.67
2022-11-20T07:04:04.124Z,7.69
2022-11-20T07:06:30.913Z,7.72
2022-11-20T07:08:58.017Z,7.71
2022-11-20T07:11:24.775Z,7.73
2022-11-20T07:13:51.470Z,7.68
2022-11-20T07:16:18.191Z,7.69
2022-11-20T07:18:49.966Z,7.68
2022-11-20T07:21:17.232Z,7.66
2022-11-20T07:23:43.828Z,7.60
2022-11-20T07:26:11.708Z,7.49
2022-11-20T07:28:38.508Z,7.53
2022-11-20T07:31:06.010Z,7.61
2022-11-20T07:33:32.794Z,7.62
2022-11-20T07:36:01.102Z,7.61
2022-11-20T07:38:27.893Z,7.61
2022-11-20T07:40:56.743Z,7.61
2022-11-20T07:43:23.346Z,7.62
2022-11-20T07:45:49.990Z,7.66
2022-11-20T07:48:16.620Z,7.74
2022-11-20T07:50:43.233Z,7.83
2022-11-20T07:53:09.933Z,7.91
2022-11-20T07:55:36.438Z,8.03
2022-11-20T07:58:03.002Z,8.10
2022-11-20T08:00:29.627Z,8.18
2022-11-20T08:02:56.384Z,8.24
2022-11-20T08:05:23.490Z,8.34
2022-11-20T08:07:50.285Z,8.39
2022-11-20T08:10:17.623Z,8.43
2022-11-20T08:13:08.007Z,8.49
2022-11-20T08:15:35.581Z,8.53
2022-11-20T08:20:54.084Z,8.50
2022-11-20T08:23:20.680Z,8.47
2022-11-20T08:25:51.923Z,8.51
2022-11-20T08:28:21.656Z,8.55
2022-11-20T08:30:50.237Z,8.63
2022-11-20T08:33:18.213Z,8.69
2022-11-20T08:35:44.975Z,8.73
2022-11-20T08:38:11.634Z,8.72
2022-11-20T08:40:38.219Z,8.70
2022-11-20T08:43:05.411Z,8.71
2022-11-20T08:45:34.910Z,8.74
2022-11-20T08:48:02.448Z,8.69
2022-11-20T08:50:29.524Z,8.58
2022-11-20T08:52:56.144Z,8.53
2022-11-20T08:55:22.752Z,8.52
2022-11-20T08:57:51.018Z,8.45
2022-11-20T09:00:18.117Z,8.45
2022-11-20T09:02:44.693Z,8.47
2022-11-20T09:05:11.351Z,8.48
2022-11-20T09:07:38.044Z,8.45
2022-11-20T09:12:52.775Z,8.49
2022-11-20T09:15:20.360Z,8.50
2022-11-20T09:17:57.946Z,8.49
2022-11-20T09:20:25.667Z,8.43
2022-11-20T09:22:52.372Z,8.31
2022-11-20T09:25:19.788Z,8.25
2022-11-20T09:27:47.156Z,8.27
2022-11-20T09:30:15.600Z,8.31
2022-11-20T09:32:42.975Z,8.38
2022-11-20T09:35:10.249Z,8.37
2022-11-20T09:37:36.912Z,8.29
2022-11-20T09:40:04.113Z,8.23
2022-11-20T09:42:44.438Z,8.19
2022-11-20T09:45:39.041Z,8.16
2022-11-20T09:48:13.794Z,8.16
2022-11-20T09:51:04.576Z,8.20
2022-11-20T09:53:48.568Z,8.24
2022-11-20T09:56:19.712Z,8.31
2022-11-20T09:58:52.585Z,8.43
2022-11-20T10:01:22.088Z,8.50
2022-11-20T10:04:00.774Z,8.57
2022-11-20T10:06:40.759Z,8.61
2022-11-20T10:09:13.636Z,8.48
2022-11-20T10:11:47.364Z,8.47
2022-11-20T10:14:36.432Z,8.51
2022-11-20T10:17:19.950Z,8.40
2022-11-20T10:20:00.807Z,8.42
2022-11-20T10:22:49.354Z,8.42
2022-11-20T10:25:17.128Z,8.42
2022-11-20T10:28:17.368Z,8.51
2022-11-20T10:30:46.800Z,8.74
2022-11-20T10:33:24.350Z,8.97
2022-11-20T10:36:17.512Z,9.08
2022-11-20T10:38:47.942Z,9.06
2022-11-20T10:41:27.062Z,9.01
2022-11-20T10:44:10.160Z,8.88
2022-11-20T10:46:44.923Z,8.84
2022-11-20T10:49:15.794Z,8.82
2022-11-20T10:52:05.656Z,8.78
2022-11-20T10:54:59.354Z,8.71
2022-11-20T10:58:02.931Z,8.79
2022-11-20T11:00:33.059Z,8.81
2022-11-20T11:03:04.063Z,8.90
2022-11-20T11:05:52.334Z,8.96
2022-11-20T11:08:22.628Z,8.91
2022-11-20T11:10:54.304Z,8.88
2022-11-20T11:13:26.473Z,9.05
2022-11-20T11:15:53.843Z,9.23
2022-11-20T11:18:28.220Z,9.44
2022-11-20T11:20:57.172Z,9.77
2022-11-20T11:23:35.329Z,10.53
2022-11-20T11:26:05.129Z,12.32
2022-11-20T11:28:31.890Z,16.10
2022-11-20T11:30:58.712Z,18.10
2022-11-20T11:33:30.147Z,19.40
2022-11-20T11:36:00.451Z,19.58
2022-11-20T11:38:33.785Z,18.26
2022-11-20T11:41:00.738Z,16.56
2022-11-20T11:43:50.198Z,15.19
2022-11-20T11:46:34.569Z,14.05
2022-11-20T11:49:10.357Z,13.49
2022-11-20T11:52:15.672Z,13.25
2022-11-20T11:54:58.033Z,13.02
2022-11-20T11:57:43.155Z,12.85
2022-11-20T12:00:19.134Z,12.69
2022-11-20T12:02:45.714Z,12.61
2022-11-20T12:05:24.472Z,12.61
2022-11-20T12:08:06.941Z,12.56
2022-11-20T12:10:49.567Z,12.62
2022-11-20T12:14:02.949Z,14.13
2022-11-20T12:16:35.773Z,15.33
2022-11-20T12:19:02.551Z,15.06
2022-11-20T12:21:43.363Z,14.71
2022-11-20T12:24:37.638Z,14.32
2022-11-20T12:27:04.712Z,13.77
2022-11-20T12:29:58.348Z,13.30
2022-11-20T12:32:58.832Z,12.87
2022-11-20T12:35:31.633Z,12.51
2022-11-20T12:38:29.080Z,12.27
2022-11-20T12:41:13.796Z,12.12
2022-11-20T12:44:30.764Z,11.99
2022-11-20T12:47:20.091Z,11.87
2022-11-20T12:50:07.270Z,11.74
2022-11-20T12:52:51.272Z,11.68
2022-11-20T12:55:34.719Z,11.62
2022-11-20T12:58:17.495Z,11.58
2022-11-20T13:01:01.480Z,11.60
2022-11-20T13:03:40.111Z,11.60
2022-11-20T13:06:27.081Z,11.59
2022-11-20T13:08:56.867Z,11.58
2022-11-20T13:11:40.773Z,11.63
2022-11-20T13:14:44.525Z,11.63
2022-11-20T13:17:18.685Z,11.65
2022-11-20T13:19:57.260Z,11.75
2022-11-20T13:22:55.594Z,11.87
2022-11-20T13:25:25.254Z,11.90
2022-11-20T13:27:51.798Z,11.94
2022-11-20T13:30:21.555Z,11.95
2022-11-20T13:32:54.388Z,12.05
2022-11-20T13:35:36.198Z,12.04
2022-11-20T13:38:05.985Z,12.07
2022-11-20T13:40:32.954Z,12.09
2022-11-20T13:43:38.032Z,12.05
2022-11-20T13:46:07.708Z,12.17
2022-11-20T13:48:35.758Z,12.29
2022-11-20T13:51:09.569Z,12.19
2022-11-20T13:54:00.684Z,12.15
2022-11-20T13:56:51.997Z,12.08
2022-11-20T13:59:56.433Z,12.01
2022-11-20T14:02:26.026Z,11.94
2022-11-20T14:04:54.863Z,11.89
2022-11-20T14:07:25.325Z,11.83
2022-11-20T14:09:57.520Z,11.84
2022-11-20T14:12:30.693Z,11.89
2022-11-20T14:14:57.518Z,11.87
2022-11-20T14:17:30.306Z,11.73
2022-11-20T14:20:06.034Z,11.55
2022-11-20T14:22:33.020Z,11.45
2022-11-20T14:25:13.981Z,11.36
2022-11-20T14:27:49.021Z,11.21
2022-11-20T14:30:24.467Z,11.14
2022-11-20T14:32:52.640Z,11.06
2022-11-20T14:35:26.256Z,10.97
2022-11-20T14:37:53.951Z,10.82
2022-11-20T14:40:27.589Z,10.71
2022-11-20T14:42:54.563Z,10.69
2022-11-20T14:45:22.986Z,10.68
2022-11-20T14:47:51.154Z,10.72
2022-11-20T14:50:29.561Z,10.74
2022-11-20T14:53:01.402Z,10.72
2022-11-20T14:55:36.504Z,10.75
2022-11-20T14:58:06.787Z,10.75
2022-11-20T15:00:36.141Z,10.71
2022-11-20T15:03:02.700Z,10.66
2022-11-20T15:05:49.945Z,10.61
2022-11-20T15:08:18.072Z,10.55
2022-11-20T15:10:52.162Z,10.51
2022-11-20T15:13:30.477Z,10.49
2022-11-20T15:15:59.096Z,10.43
2022-11-20T15:18:40.471Z,10.42
2022-11-20T15:21:18.999Z,10.40
2022-11-20T15:23:45.912Z,10.40
2022-11-20T15:26:19.912Z,10.39
2022-11-20T15:28:51.437Z,10.36
2022-11-20T15:31:21.871Z,10.26
2022-11-20T15:33:48.858Z,10.26
2022-11-20T15:36:16.564Z,10.27
2022-11-20T15:38:43.233Z,10.28
2022-11-20T15:41:11.227Z,10.28
2022-11-20T15:43:38.059Z,10.26
2022-11-20T15:46:10.268Z,10.30
2022-11-20T15:48:48.319Z,10.34
2022-11-20T15:51:22.068Z,10.34
2022-11-20T15:53:48.708Z,10.32
2022-11-20T15:56:15.742Z,10.33
2022-11-20T15:58:42.568Z,10.31
2022-11-20T16:01:14.973Z,10.25
2022-11-20T16:03:42.301Z,10.27
2022-11-20T16:06:08.858Z,10.27
2022-11-20T16:08:35.789Z,10.31
2022-11-20T16:11:02.997Z,10.21
2022-11-20T16:13:50.194Z,10.19
2022-11-20T16:16:23.468Z,10.18
2022-11-20T16:18:51.054Z,10.15
2022-11-20T16:21:18.163Z,10.15
2022-11-20T16:23:44.932Z,10.08
2022-11-20T16:26:17.819Z,10.01
2022-11-20T16:28:44.836Z,9.99
2022-11-20T16:31:16.800Z,10.01
2022-11-20T16:33:44.083Z,10.04
2022-11-20T16:36:15.970Z,10.05
2022-11-20T16:38:43.029Z,9.98
2022-11-20T16:41:14.380Z,10.00
2022-11-20T16:43:49.534Z,10.04
2022-11-20T16:46:17.363Z,10.06
2022-11-20T16:48:43.961Z,10.08
2022-11-20T16:51:12.133Z,10.07
2022-11-20T16:53:42.680Z,10.09
2022-11-20T16:56:17.972Z,10.12
2022-11-20T16:58:45.812Z,10.12
2022-11-20T17:01:16.227Z,10.11
2022-11-20T17:03:44.663Z,10.06
2022-11-20T17:06:18.320Z,10.04
2022-11-20T17:08:46.405Z,9.99
2022-11-20T17:11:15.930Z,9.98
2022-11-20T17:13:43.036Z,9.91
2022-11-20T17:16:12.862Z,9.88
2022-11-20T17:18:39.590Z,9.86
2022-11-20T17:21:07.557Z,9.81
2022-11-20T17:23:42.284Z,9.88
2022-11-20T17:26:13.925Z,9.87
2022-11-20T17:28:41.436Z,9.90
2022-11-20T17:31:17.564Z,9.88
2022-11-20T17:33:46.432Z,9.88
2022-11-20T17:36:16.225Z,9.90
2022-11-20T17:38:43.204Z,9.83
2022-11-20T17:41:20.555Z,9.79
2022-11-20T17:43:47.342Z,9.80
2022-11-20T17:46:19.198Z,9.83
2022-11-20T17:48:49.529Z,9.85
2022-11-20T17:51:22.214Z,9.84
2022-11-20T17:53:51.481Z,9.83
2022-11-20T17:56:36.677Z,9.78
2022-11-20T17:59:07.872Z,9.68
2022-11-20T18:01:35.512Z,9.66
2022-11-20T18:04:02.854Z,9.79
2022-11-20T18:06:31.215Z,9.83
2022-11-20T18:08:59.646Z,9.83
2022-11-20T18:11:33.843Z,9.89
2022-11-20T18:14:21.404Z,9.83
2022-11-20T18:16:51.425Z,9.84
2022-11-20T18:19:21.376Z,9.84
2022-11-20T18:21:48.080Z,9.86
2022-11-20T18:24:15.362Z,9.82
2022-11-20T18:26:44.520Z,9.78
2022-11-20T18:29:12.796Z,9.85
2022-11-20T18:31:39.946Z,9.76
2022-11-20T18:34:11.679Z,9.68
2022-11-20T18:36:38.927Z,9.52
2022-11-20T18:39:05.959Z,9.35
2022-11-20T18:41:51.079Z,9.40
2022-11-20T18:44:41.700Z,9.43
2022-11-20T18:47:14.617Z,9.31
2022-11-20T18:49:50.642Z,9.12
2022-11-20T18:52:17.825Z,9.10
2022-11-20T18:54:44.547Z,9.13
2022-11-20T18:57:14.657Z,9.11
2022-11-20T18:59:44.552Z,9.14
2022-11-20T19:02:16.160Z,9.22
2022-11-20T19:04:43.445Z,9.22
2022-11-20T19:07:12.205Z,9.28
2022-11-20T19:09:41.099Z,9.26
2022-11-20T19:12:12.426Z,9.28
2022-11-20T19:14:39.416Z,9.38
2022-11-20T19:17:07.900Z,9.36
2022-11-20T19:19:35.982Z,9.39
2022-11-20T19:22:04.256Z,9.31
2022-11-20T19:24:30.965Z,9.36
2022-11-20T19:26:57.684Z,9.40
2022-11-20T19:29:25.750Z,9.33
2022-11-20T19:31:53.610Z,9.33
2022-11-20T19:34:20.559Z,9.34
2022-11-20T19:36:47.585Z,9.35
2022-11-20T19:39:14.263Z,9.38
2022-11-20T19:41:41.617Z,9.38
2022-11-20T19:44:11.111Z,9.36
2022-11-20T19:46:39.353Z,9.38
2022-11-20T19:49:10.125Z,9.37
2022-11-20T19:51:39.305Z,9.26
2022-11-20T19:54:06.963Z,9.23
2022-11-20T19:56:34.295Z,9.31
2022-11-20T19:59:01.394Z,9.37
2022-11-20T20:01:30.746Z,9.38
2022-11-20T20:04:02.526Z,9.30
2022-11-20T20:06:30.160Z,9.17
2022-11-20T20:09:02.733Z,9.10
2022-11-20T20:11:31.548Z,9.06
2022-11-20T20:14:01.250Z,9.01
2022-11-20T20:16:28.824Z,9.00
2022-11-20T20:18:57.603Z,9.02
2022-11-20T20:21:24.503Z,9.01
2022-11-20T20:23:56.028Z,9.07
2022-11-20T20:26:28.662Z,9.07
2022-11-20T20:28:55.790Z,9.10
2022-11-20T20:31:27.791Z,9.17
2022-11-20T20:33:55.211Z,9.16
2022-11-20T20:36:24.067Z,9.06
2022-11-20T20:39:05.210Z,8.77
2022-11-20T20:41:32.345Z,8.76
2022-11-20T20:44:17.753Z,8.72
2022-11-20T20:46:44.360Z,8.58
2022-11-20T20:49:10.993Z,8.44
2022-11-20T20:51:37.684Z,8.31
2022-11-20T20:54:04.775Z,8.22
2022-11-20T20:56:31.596Z,8.21
2022-11-20T20:58:58.433Z,8.19
2022-11-20T21:01:28.514Z,8.18
2022-11-20T21:03:56.290Z,8.17
2022-11-20T21:06:22.981Z,8.17
2022-11-20T21:08:49.691Z,8.20
2022-11-20T21:11:20.044Z,8.24
2022-11-20T21:13:47.467Z,8.26
2022-11-20T21:16:15.363Z,8.21
2022-11-20T21:18:42.104Z,8.21
2022-11-20T21:21:32.068Z,8.23
2022-11-20T21:23:58.642Z,8.19
2022-11-20T21:26:25.315Z,8.15
2022-11-20T21:28:51.965Z,8.16
2022-11-20T21:31:28.828Z,8.14
2022-11-20T21:33:56.575Z,8.20
2022-11-20T21:36:26.118Z,8.24
2022-11-20T21:38:56.584Z,8.21
2022-11-20T21:41:27.307Z,8.18
2022-11-20T21:44:29.000Z,8.25
2022-11-20T21:46:44.380Z,8.20
2022-11-20T21:49:11.620Z,8.17
2022-11-20T21:51:38.764Z,8.17
2022-11-20T21:54:08.329Z,8.19
2022-11-20T21:56:35.372Z,8.21
2022-11-20T21:59:02.164Z,8.19
2022-11-20T22:01:30.385Z,8.17
2022-11-20T22:03:59.845Z,8.20
2022-11-20T22:06:30.250Z,8.27
2022-11-20T22:08:56.868Z,8.33
2022-11-20T22:11:23.777Z,8.45
2022-11-20T22:14:08.895Z,8.49
2022-11-20T22:16:36.864Z,8.52
2022-11-20T22:19:04.626Z,8.52
2022-11-20T22:21:38.195Z,8.58
2022-11-20T22:24:04.934Z,8.62
2022-11-20T22:26:38.804Z,8.62
2022-11-20T22:29:07.229Z,8.66
2022-11-20T22:31:34.091Z,8.71
2022-11-20T22:34:02.333Z,8.80
2022-11-20T22:36:30.524Z,8.84
2022-11-20T22:38:58.215Z,8.90
2022-11-20T22:41:27.437Z,8.87
2022-11-20T22:44:01.855Z,8.87
2022-11-20T22:46:31.238Z,8.91
2022-11-20T22:49:00.103Z,8.94
2022-11-20T22:51:32.797Z,8.91
2022-11-20T22:53:59.955Z,8.93
2022-11-20T22:56:27.192Z,8.89
2022-11-20T22:58:54.755Z,8.96
2022-11-20T23:01:23.828Z,8.94
2022-11-20T23:03:52.630Z,8.93
2022-11-20T23:06:21.630Z,8.95
2022-11-20T23:08:49.225Z,9.02
2022-11-20T23:11:22.454Z,9.07
2022-11-20T23:13:57.940Z,9.07
2022-11-20T23:16:27.117Z,9.07
2022-11-20T23:18:59.975Z,9.04
2022-11-20T23:21:27.324Z,9.00
2022-11-20T23:23:56.349Z,9.02
2022-11-20T23:26:25.779Z,9.03
2022-11-20T23:28:57.822Z,9.01
2022-11-20T23:31:25.856Z,9.04
2022-11-20T23:33:52.568Z,9.07
2022-11-20T23:36:19.351Z,9.14
2022-11-20T23:38:45.950Z,9.19
2022-11-20T23:41:13.328Z,9.20
2022-11-20T23:43:40.387Z,9.28
2022-11-20T23:46:07.105Z,9.33
2022-11-20T23:48:35.905Z,9.42
2022-11-20T23:51:03.346Z,9.43
2022-11-20T23:53:30.505Z,9.47
2022-11-20T23:55:59.587Z,9.54
2022-11-20T23:58:34.942Z,9.60
